sensor_id;sensor_type;location;lat;lon;timestamp;temperature;humidity
33803;DHT22;20110;53.120;5.786;2023-02-26T00:00:37;0.60;97.20
33803;DHT22;20110;53.120;5.786;2023-02-26T00:03:03;0.60;97.10
33803;DHT22;20110;53.120;5.786;2023-02-26T00:05:29;0.60;97.00
33803;DHT22;20110;53.120;5.786;2023-02-26T00:07:55;0.60;97.00
33803;DHT22;20110;53.120;5.786;2023-02-26T00:10:21;0.40;96.90
33803;DHT22;20110;53.120;5.786;2023-02-26T00:12:47;0.40;97.10
33803;DHT22;20110;53.120;5.786;2023-02-26T00:15:14;0.20;97.10
33803;DHT22;20110;53.120;5.786;2023-02-26T00:18:01;0.10;97.30
33803;DHT22;20110;53.120;5.786;2023-02-26T00:20:30;0.10;97.90
33803;DHT22;20110;53.120;5.786;2023-02-26T00:22:57;-0.10;98.30
33803;DHT22;20110;53.120;5.786;2023-02-26T00:25:23;-0.20;98.60
33803;DHT22;20110;53.120;5.786;2023-02-26T00:27:49;-0.20;98.80
33803;DHT22;20110;53.120;5.786;2023-02-26T00:30:15;-0.20;99.20
33803;DHT22;20110;53.120;5.786;2023-02-26T00:32:42;-0.20;99.40
33803;DHT22;20110;53.120;5.786;2023-02-26T00:35:12;-0.20;99.60
33803;DHT22;20110;53.120;5.786;2023-02-26T00:38:05;-0.20;99.70
33803;DHT22;20110;53.120;5.786;2023-02-26T00:40:43;-0.20;99.90
33803;DHT22;20110;53.120;5.786;2023-02-26T00:43:20;-0.20;99.90
33803;DHT22;20110;53.120;5.786;2023-02-26T00:51:39;-0.30;99.90
33803;DHT22;20110;53.120;5.786;2023-02-26T00:54:22;-0.30;99.90
33803;DHT22;20110;53.120;5.786;2023-02-26T00:56:51;-0.30;99.90
33803;DHT22;20110;53.120;5.786;2023-02-26T00:59:18;-0.20;99.90
33803;DHT22;20110;53.120;5.786;2023-02-26T01:01:45;-0.20;99.90
33803;DHT22;20110;53.120;5.786;2023-02-26T01:04:12;0.10;99.90
33803;DHT22;20110;53.120;5.786;2023-02-26T01:06:45;0.10;99.90
33803;DHT22;20110;53.120;5.786;2023-02-26T01:09:34;0.10;99.70
33803;DHT22;20110;53.120;5.786;2023-02-26T01:12:07;0.20;99.40
33803;DHT22;20110;53.120;5.786;2023-02-26T01:14:35;0.30;99.10
33803;DHT22;20110;53.120;5.786;2023-02-26T01:19:44;0.10;99.20
33803;DHT22;20110;53.120;5.786;2023-02-26T01:25:10;0.00;99.80
33803;DHT22;20110;53.120;5.786;2023-02-26T01:27:37;-0.10;99.90
33803;DHT22;20110;53.120;5.786;2023-02-26T01:30:05;0.00;99.90
33803;DHT22;20110;53.120;5.786;2023-02-26T01:32:45;0.00;99.90
33803;DHT22;20110;53.120;5.786;2023-02-26T01:35:47;0.10;99.90
33803;DHT22;20110;53.120;5.786;2023-02-26T01:38:23;0.10;99.90
33803;DHT22;20110;53.120;5.786;2023-02-26T01:49:25;0.20;99.90
33803;DHT22;20110;53.120;5.786;2023-02-26T01:51:56;0.10;99.90
33803;DHT22;20110;53.120;5.786;2023-02-26T01:54:35;0.10;99.90
33803;DHT22;20110;53.120;5.786;2023-02-26T01:57:11;0.10;99.90
33803;DHT22;20110;53.120;5.786;2023-02-26T01:59:44;0.00;99.90
33803;DHT22;20110;53.120;5.786;2023-02-26T02:02:16;-0.10;99.90
33803;DHT22;20110;53.120;5.786;2023-02-26T02:04:46;-0.10;99.90
33803;DHT22;20110;53.120;5.786;2023-02-26T02:07:13;-0.20;99.90
33803;DHT22;20110;53.120;5.786;2023-02-26T02:09:39;-0.40;99.90
33803;DHT22;20110;53.120;5.786;2023-02-26T02:15:39;-0.60;99.90
33803;DHT22;20110;53.120;5.786;2023-02-26T02:18:17;-0.60;99.90
33803;DHT22;20110;53.120;5.786;2023-02-26T02:29:58;-0.70;99.90
33803;DHT22;20110;53.120;5.786;2023-02-26T02:32:56;-0.70;99.90
33803;DHT22;20110;53.120;5.786;2023-02-26T02:35:38;-0.70;99.90
33803;DHT22;20110;53.120;5.786;2023-02-26T02:38:18;-0.70;99.90
33803;DHT22;20110;53.120;5.786;2023-02-26T02:40:51;-0.60;99.90
33803;DHT22;20110;53.120;5.786;2023-02-26T02:43:26;-0.50;99.90
33803;DHT22;20110;53.120;5.786;2023-02-26T02:46:03;-0.50;99.90
33803;DHT22;20110;53.120;5.786;2023-02-26T02:48:32;-0.40;99.90
33803;DHT22;20110;53.120;5.786;2023-02-26T02:51:10;-0.30;99.90
33803;DHT22;20110;53.120;5.786;2023-02-26T02:56:51;-0.20;99.90
33803;DHT22;20110;53.120;5.786;2023-02-26T02:59:44;-0.20;99.90
33803;DHT22;20110;53.120;5.786;2023-02-26T03:02:26;-0.20;99.90
33803;DHT22;20110;53.120;5.786;2023-02-26T03:04:56;-0.30;99.90
33803;DHT22;20110;53.120;5.786;2023-02-26T03:07:23;-0.40;99.90
33803;DHT22;20110;53.120;5.786;2023-02-26T03:09:49;-0.50;99.90
33803;DHT22;20110;53.120;5.786;2023-02-26T03:12:15;-0.70;99.90
33803;DHT22;20110;53.120;5.786;2023-02-26T03:14:41;-0.80;99.90
33803;DHT22;20110;53.120;5.786;2023-02-26T03:17:15;-0.90;99.90
33803;DHT22;20110;53.120;5.786;2023-02-26T03:20:02;-1.10;99.90
33803;DHT22;20110;53.120;5.786;2023-02-26T03:25:44;-1.50;99.90
33803;DHT22;20110;53.120;5.786;2023-02-26T03:28:49;-1.70;99.90
33803;DHT22;20110;53.120;5.786;2023-02-26T03:37:23;-2.80;99.90
33803;DHT22;20110;53.120;5.786;2023-02-26T03:39:58;-2.80;99.90
33803;DHT22;20110;53.120;5.786;2023-02-26T03:42:43;-2.80;99.90
33803;DHT22;20110;53.120;5.786;2023-02-26T03:45:19;-3.00;99.90
33803;DHT22;20110;53.120;5.786;2023-02-26T03:47:52;-3.20;99.90
33803;DHT22;20110;53.120;5.786;2023-02-26T03:52:57;-2.80;99.90
33803;DHT22;20110;53.120;5.786;2023-02-26T03:55:41;-2.60;99.90
33803;DHT22;20110;53.120;5.786;2023-02-26T03:58:12;-2.50;99.90
33803;DHT22;20110;53.120;5.786;2023-02-26T04:00:41;-2.40;99.90
33803;DHT22;20110;53.120;5.786;2023-02-26T04:03:21;-2.30;99.90
33803;DHT22;20110;53.120;5.786;2023-02-26T04:05:53;-2.10;99.90
33803;DHT22;20110;53.120;5.786;2023-02-26T04:08:21;-2.30;99.90
33803;DHT22;20110;53.120;5.786;2023-02-26T04:10:57;-2.30;99.90
33803;DHT22;20110;53.120;5.786;2023-02-26T04:13:28;-2.20;99.90
33803;DHT22;20110;53.120;5.786;2023-02-26T04:15:53;-2.20;99.90
33803;DHT22;20110;53.120;5.786;2023-02-26T04:18:20;-2.20;99.90
33803;DHT22;20110;53.120;5.786;2023-02-26T04:20:45;-2.00;99.90
33803;DHT22;20110;53.120;5.786;2023-02-26T04:23:11;-2.10;99.90
33803;DHT22;20110;53.120;5.786;2023-02-26T04:25:37;-2.10;99.90
33803;DHT22;20110;53.120;5.786;2023-02-26T04:28:03;-2.20;99.90
33803;DHT22;20110;53.120;5.786;2023-02-26T04:30:29;-2.20;99.90
33803;DHT22;20110;53.120;5.786;2023-02-26T04:32:54;-2.20;99.90
33803;DHT22;20110;53.120;5.786;2023-02-26T04:35:20;-2.30;99.90
33803;DHT22;20110;53.120;5.786;2023-02-26T04:37:46;-2.40;99.90
33803;DHT22;20110;53.120;5.786;2023-02-26T04:40:12;-2.60;99.90
33803;DHT22;20110;53.120;5.786;2023-02-26T04:42:38;-2.60;99.90
33803;DHT22;20110;53.120;5.786;2023-02-26T04:45:04;-2.60;99.90
33803;DHT22;20110;53.120;5.786;2023-02-26T04:47:30;-2.50;99.90
33803;DHT22;20110;53.120;5.786;2023-02-26T04:49:56;-2.40;99.90
33803;DHT22;20110;53.120;5.786;2023-02-26T04:52:22;-2.20;99.90
33803;DHT22;20110;53.120;5.786;2023-02-26T04:54:48;-2.30;99.90
33803;DHT22;20110;53.120;5.786;2023-02-26T04:57:13;-2.40;99.90
33803;DHT22;20110;53.120;5.786;2023-02-26T04:59:39;-2.40;99.90
33803;DHT22;20110;53.120;5.786;2023-02-26T05:02:05;-2.50;99.90
33803;DHT22;20110;53.120;5.786;2023-02-26T05:04:31;-2.80;99.90
33803;DHT22;20110;53.120;5.786;2023-02-26T05:06:57;-3.00;99.90
33803;DHT22;20110;53.120;5.786;2023-02-26T05:09:23;-3.30;99.90
33803;DHT22;20110;53.120;5.786;2023-02-26T05:11:49;-3.70;99.90
33803;DHT22;20110;53.120;5.786;2023-02-26T05:14:16;-4.00;99.90
33803;DHT22;20110;53.120;5.786;2023-02-26T05:16:42;-4.20;99.90
33803;DHT22;20110;53.120;5.786;2023-02-26T05:19:08;-4.10;99.90
33803;DHT22;20110;53.120;5.786;2023-02-26T05:21:33;-4.10;99.90
33803;DHT22;20110;53.120;5.786;2023-02-26T05:23:59;-3.90;99.90
33803;DHT22;20110;53.120;5.786;2023-02-26T05:26:26;-3.90;99.90
33803;DHT22;20110;53.120;5.786;2023-02-26T05:28:52;-3.90;99.90
33803;DHT22;20110;53.120;5.786;2023-02-26T05:31:18;-3.80;99.90
33803;DHT22;20110;53.120;5.786;2023-02-26T05:33:44;-3.70;99.90
33803;DHT22;20110;53.120;5.786;2023-02-26T05:36:11;-3.70;99.90
33803;DHT22;20110;53.120;5.786;2023-02-26T05:38:37;-3.70;99.90
33803;DHT22;20110;53.120;5.786;2023-02-26T05:41:03;-3.50;99.90
33803;DHT22;20110;53.120;5.786;2023-02-26T05:43:29;-3.30;99.90
33803;DHT22;20110;53.120;5.786;2023-02-26T05:45:55;-3.20;99.90
33803;DHT22;20110;53.120;5.786;2023-02-26T05:48:22;-3.20;99.90
33803;DHT22;20110;53.120;5.786;2023-02-26T05:50:48;-3.00;99.90
33803;DHT22;20110;53.120;5.786;2023-02-26T05:53:15;-3.00;99.90
33803;DHT22;20110;53.120;5.786;2023-02-26T05:55:41;-3.00;99.90
33803;DHT22;20110;53.120;5.786;2023-02-26T05:58:07;-2.90;99.90
33803;DHT22;20110;53.120;5.786;2023-02-26T06:00:33;-2.80;99.90
33803;DHT22;20110;53.120;5.786;2023-02-26T06:02:59;-2.80;99.90
33803;DHT22;20110;53.120;5.786;2023-02-26T06:05:24;-2.80;99.90
33803;DHT22;20110;53.120;5.786;2023-02-26T06:07:50;-2.80;99.90
33803;DHT22;20110;53.120;5.786;2023-02-26T06:10:16;-2.80;99.90
33803;DHT22;20110;53.120;5.786;2023-02-26T06:12:42;-2.80;99.90
33803;DHT22;20110;53.120;5.786;2023-02-26T06:15:09;-2.80;99.90
33803;DHT22;20110;53.120;5.786;2023-02-26T06:17:36;-2.80;99.90
33803;DHT22;20110;53.120;5.786;2023-02-26T06:20:03;-2.70;99.90
33803;DHT22;20110;53.120;5.786;2023-02-26T06:22:30;-2.80;99.90
33803;DHT22;20110;53.120;5.786;2023-02-26T06:24:56;-2.80;99.90
33803;DHT22;20110;53.120;5.786;2023-02-26T06:27:22;-2.80;99.90
33803;DHT22;20110;53.120;5.786;2023-02-26T06:29:48;-2.80;99.90
33803;DHT22;20110;53.120;5.786;2023-02-26T06:32:14;-2.80;99.90
33803;DHT22;20110;53.120;5.786;2023-02-26T06:34:39;-2.80;99.90
33803;DHT22;20110;53.120;5.786;2023-02-26T06:37:05;-2.90;99.90
33803;DHT22;20110;53.120;5.786;2023-02-26T06:39:31;-2.90;99.90
33803;DHT22;20110;53.120;5.786;2023-02-26T06:41:57;-2.90;99.90
33803;DHT22;20110;53.120;5.786;2023-02-26T06:44:23;-3.00;99.90
33803;DHT22;20110;53.120;5.786;2023-02-26T06:46:49;-3.00;99.90
33803;DHT22;20110;53.120;5.786;2023-02-26T06:49:15;-3.10;99.90
33803;DHT22;20110;53.120;5.786;2023-02-26T06:51:41;-3.00;99.90
33803;DHT22;20110;53.120;5.786;2023-02-26T06:54:07;-3.00;99.90
33803;DHT22;20110;53.120;5.786;2023-02-26T06:56:33;-2.90;99.90
33803;DHT22;20110;53.120;5.786;2023-02-26T06:58:59;-2.90;99.90
33803;DHT22;20110;53.120;5.786;2023-02-26T07:01:25;-2.70;99.90
33803;DHT22;20110;53.120;5.786;2023-02-26T07:03:53;-2.60;99.90
33803;DHT22;20110;53.120;5.786;2023-02-26T07:06:18;-2.60;99.90
33803;DHT22;20110;53.120;5.786;2023-02-26T07:08:44;-2.50;99.90
33803;DHT22;20110;53.120;5.786;2023-02-26T07:11:10;-2.40;99.90
33803;DHT22;20110;53.120;5.786;2023-02-26T07:13:37;-2.30;99.90
33803;DHT22;20110;53.120;5.786;2023-02-26T07:16:03;-2.20;99.90
33803;DHT22;20110;53.120;5.786;2023-02-26T07:18:32;-2.20;99.90
33803;DHT22;20110;53.120;5.786;2023-02-26T07:21:00;-2.00;99.90
33803;DHT22;20110;53.120;5.786;2023-02-26T07:23:26;-2.00;99.90
33803;DHT22;20110;53.120;5.786;2023-02-26T07:25:52;-2.00;99.90
33803;DHT22;20110;53.120;5.786;2023-02-26T07:28:18;-2.00;99.90
33803;DHT22;20110;53.120;5.786;2023-02-26T07:30:45;-2.00;99.90
33803;DHT22;20110;53.120;5.786;2023-02-26T07:33:11;-2.00;99.90
33803;DHT22;20110;53.120;5.786;2023-02-26T07:35:38;-2.00;99.90
33803;DHT22;20110;53.120;5.786;2023-02-26T07:38:05;-1.90;99.90
33803;DHT22;20110;53.120;5.786;2023-02-26T07:40:31;-1.90;99.90
33803;DHT22;20110;53.120;5.786;2023-02-26T07:42:57;-1.70;99.90
33803;DHT22;20110;53.120;5.786;2023-02-26T07:45:23;-1.70;99.90
33803;DHT22;20110;53.120;5.786;2023-02-26T07:47:50;-1.60;99.90
33803;DHT22;20110;53.120;5.786;2023-02-26T07:50:18;-1.40;99.90
33803;DHT22;20110;53.120;5.786;2023-02-26T07:52:45;-1.30;99.90
33803;DHT22;20110;53.120;5.786;2023-02-26T07:55:13;-1.40;99.90
33803;DHT22;20110;53.120;5.786;2023-02-26T07:57:39;-1.40;99.90
33803;DHT22;20110;53.120;5.786;2023-02-26T08:00:05;-1.30;99.90
33803;DHT22;20110;53.120;5.786;2023-02-26T08:02:32;-1.20;99.90
33803;DHT22;20110;53.120;5.786;2023-02-26T08:04:58;-1.10;99.90
33803;DHT22;20110;53.120;5.786;2023-02-26T08:07:23;-0.80;99.90
33803;DHT22;20110;53.120;5.786;2023-02-26T08:09:49;-0.40;99.90
33803;DHT22;20110;53.120;5.786;2023-02-26T08:12:16;-0.20;99.90
33803;DHT22;20110;53.120;5.786;2023-02-26T08:14:42;-0.10;99.90
33803;DHT22;20110;53.120;5.786;2023-02-26T08:17:08;-0.10;99.90
33803;DHT22;20110;53.120;5.786;2023-02-26T08:19:35;0.10;99.90
33803;DHT22;20110;53.120;5.786;2023-02-26T08:22:02;0.10;99.90
33803;DHT22;20110;53.120;5.786;2023-02-26T08:24:28;0.10;99.90
33803;DHT22;20110;53.120;5.786;2023-02-26T08:26:54;0.10;99.90
33803;DHT22;20110;53.120;5.786;2023-02-26T08:29:21;0.30;99.90
33803;DHT22;20110;53.120;5.786;2023-02-26T08:31:47;0.40;99.90
33803;DHT22;20110;53.120;5.786;2023-02-26T08:34:13;0.50;99.90
33803;DHT22;20110;53.120;5.786;2023-02-26T08:36:39;0.60;99.90
33803;DHT22;20110;53.120;5.786;2023-02-26T08:39:06;0.70;99.90
33803;DHT22;20110;53.120;5.786;2023-02-26T08:41:32;0.80;99.90
33803;DHT22;20110;53.120;5.786;2023-02-26T08:44:00;0.80;99.90
33803;DHT22;20110;53.120;5.786;2023-02-26T08:46:27;0.90;99.90
33803;DHT22;20110;53.120;5.786;2023-02-26T08:48:53;1.00;99.90
33803;DHT22;20110;53.120;5.786;2023-02-26T08:51:20;1.10;99.90
33803;DHT22;20110;53.120;5.786;2023-02-26T08:53:46;1.20;99.90
33803;DHT22;20110;53.120;5.786;2023-02-26T08:56:15;1.30;99.90
33803;DHT22;20110;53.120;5.786;2023-02-26T08:58:41;1.40;99.90
33803;DHT22;20110;53.120;5.786;2023-02-26T09:01:07;1.50;99.90
33803;DHT22;20110;53.120;5.786;2023-02-26T09:03:33;1.60;99.90
33803;DHT22;20110;53.120;5.786;2023-02-26T09:06:00;1.80;99.90
33803;DHT22;20110;53.120;5.786;2023-02-26T09:08:26;1.90;99.90
33803;DHT22;20110;53.120;5.786;2023-02-26T09:10:51;2.00;99.90
33803;DHT22;20110;53.120;5.786;2023-02-26T09:13:17;2.10;99.90
33803;DHT22;20110;53.120;5.786;2023-02-26T09:15:43;2.20;99.90
33803;DHT22;20110;53.120;5.786;2023-02-26T09:18:10;2.20;99.90
33803;DHT22;20110;53.120;5.786;2023-02-26T09:20:41;2.30;99.90
33803;DHT22;20110;53.120;5.786;2023-02-26T09:23:08;2.30;99.90
33803;DHT22;20110;53.120;5.786;2023-02-26T09:25:34;2.50;99.90
33803;DHT22;20110;53.120;5.786;2023-02-26T09:28:00;2.50;99.90
33803;DHT22;20110;53.120;5.786;2023-02-26T09:30:26;2.70;99.90
33803;DHT22;20110;53.120;5.786;2023-02-26T09:32:52;2.90;99.90
33803;DHT22;20110;53.120;5.786;2023-02-26T09:35:18;2.90;99.90
33803;DHT22;20110;53.120;5.786;2023-02-26T09:37:44;3.00;99.90
33803;DHT22;20110;53.120;5.786;2023-02-26T09:40:22;3.00;99.90
33803;DHT22;20110;53.120;5.786;2023-02-26T09:46:03;3.00;99.90
33803;DHT22;20110;53.120;5.786;2023-02-26T09:48:37;2.80;99.90
33803;DHT22;20110;53.120;5.786;2023-02-26T09:51:04;2.70;99.90
33803;DHT22;20110;53.120;5.786;2023-02-26T09:53:38;2.60;99.90
33803;DHT22;20110;53.120;5.786;2023-02-26T09:56:22;2.50;99.90
33803;DHT22;20110;53.120;5.786;2023-02-26T09:58:50;2.50;99.90
33803;DHT22;20110;53.120;5.786;2023-02-26T10:01:26;2.50;99.90
33803;DHT22;20110;53.120;5.786;2023-02-26T10:12:36;3.00;99.90
33803;DHT22;20110;53.120;5.786;2023-02-26T10:15:24;3.00;99.90
33803;DHT22;20110;53.120;5.786;2023-02-26T10:18:13;3.20;99.60
33803;DHT22;20110;53.120;5.786;2023-02-26T10:21:06;3.20;99.30
33803;DHT22;20110;53.120;5.786;2023-02-26T10:23:45;3.20;99.10
33803;DHT22;20110;53.120;5.786;2023-02-26T10:26:32;3.20;98.40
33803;DHT22;20110;53.120;5.786;2023-02-26T10:29:19;3.30;98.30
33803;DHT22;20110;53.120;5.786;2023-02-26T10:34:51;3.40;98.90
33803;DHT22;20110;53.120;5.786;2023-02-26T10:37:47;3.60;98.30
33803;DHT22;20110;53.120;5.786;2023-02-26T10:40:33;3.70;98.40
33803;DHT22;20110;53.120;5.786;2023-02-26T10:43:41;3.70;98.50
33803;DHT22;20110;53.120;5.786;2023-02-26T10:51:50;4.30;96.90
33803;DHT22;20110;53.120;5.786;2023-02-26T10:56:59;4.50;95.10
33803;DHT22;20110;53.120;5.786;2023-02-26T10:59:26;4.90;95.50
33803;DHT22;20110;53.120;5.786;2023-02-26T11:01:52;5.20;93.50
33803;DHT22;20110;53.120;5.786;2023-02-26T11:04:24;5.60;94.00
33803;DHT22;20110;53.120;5.786;2023-02-26T11:09:36;5.30;90.40
33803;DHT22;20110;53.120;5.786;2023-02-26T11:14:37;4.60;89.90
33803;DHT22;20110;53.120;5.786;2023-02-26T11:17:11;4.50;90.70
33803;DHT22;20110;53.120;5.786;2023-02-26T11:19:45;4.30;89.40
33803;DHT22;20110;53.120;5.786;2023-02-26T11:22:17;4.10;90.00
33803;DHT22;20110;53.120;5.786;2023-02-26T11:24:47;4.00;91.20
33803;DHT22;20110;53.120;5.786;2023-02-26T11:27:21;3.90;92.10
33803;DHT22;20110;53.120;5.786;2023-02-26T11:29:56;3.80;91.80
33803;DHT22;20110;53.120;5.786;2023-02-26T11:32:35;3.80;93.10
33803;DHT22;20110;53.120;5.786;2023-02-26T11:35:06;3.90;94.10
33803;DHT22;20110;53.120;5.786;2023-02-26T11:37:37;4.20;93.30
33803;DHT22;20110;53.120;5.786;2023-02-26T11:43:05;4.80;93.90
33803;DHT22;20110;53.120;5.786;2023-02-26T11:45:41;4.90;92.10
33803;DHT22;20110;53.120;5.786;2023-02-26T11:48:18;4.60;91.80
33803;DHT22;20110;53.120;5.786;2023-02-26T11:50:50;4.60;91.70
33803;DHT22;20110;53.120;5.786;2023-02-26T11:53:46;4.70;91.20
33803;DHT22;20110;53.120;5.786;2023-02-26T11:56:30;4.50;91.40
33803;DHT22;20110;53.120;5.786;2023-02-26T11:59:07;4.70;90.80
33803;DHT22;20110;53.120;5.786;2023-02-26T12:01:42;5.30;90.30
33803;DHT22;20110;53.120;5.786;2023-02-26T12:04:10;5.90;90.50
33803;DHT22;20110;53.120;5.786;2023-02-26T12:06:38;6.20;88.90
33803;DHT22;20110;53.120;5.786;2023-02-26T12:09:10;6.40;86.10
33803;DHT22;20110;53.120;5.786;2023-02-26T12:17:29;7.10;80.70
33803;DHT22;20110;53.120;5.786;2023-02-26T12:29:14;6.60;85.90
33803;DHT22;20110;53.120;5.786;2023-02-26T12:43:46;6.40;79.90
33803;DHT22;20110;53.120;5.786;2023-02-26T12:46:25;6.40;79.40
33803;DHT22;20110;53.120;5.786;2023-02-26T12:49:19;6.40;80.80
33803;DHT22;20110;53.120;5.786;2023-02-26T12:52:15;6.60;81.50
33803;DHT22;20110;53.120;5.786;2023-02-26T12:55:33;6.90;80.30
33803;DHT22;20110;53.120;5.786;2023-02-26T13:04:20;7.10;79.60
33803;DHT22;20110;53.120;5.786;2023-02-26T13:07:04;7.30;78.90
33803;DHT22;20110;53.120;5.786;2023-02-26T13:10:02;7.40;81.20
33803;DHT22;20110;53.120;5.786;2023-02-26T13:12:49;7.40;81.10
33803;DHT22;20110;53.120;5.786;2023-02-26T13:18:23;6.20;79.90
33803;DHT22;20110;53.120;5.786;2023-02-26T13:21:07;6.40;80.00
33803;DHT22;20110;53.120;5.786;2023-02-26T13:23:59;6.50;80.50
33803;DHT22;20110;53.120;5.786;2023-02-26T13:26:31;6.50;81.80
33803;DHT22;20110;53.120;5.786;2023-02-26T13:34:49;5.70;84.30
33803;DHT22;20110;53.120;5.786;2023-02-26T13:37:25;6.20;81.10
33803;DHT22;20110;53.120;5.786;2023-02-26T13:39:56;6.50;81.70
33803;DHT22;20110;53.120;5.786;2023-02-26T13:46:02;6.50;78.50
33803;DHT22;20110;53.120;5.786;2023-02-26T13:49:00;6.20;81.50
33803;DHT22;20110;53.120;5.786;2023-02-26T13:51:48;5.90;82.40
33803;DHT22;20110;53.120;5.786;2023-02-26T13:57:04;5.60;81.50
33803;DHT22;20110;53.120;5.786;2023-02-26T13:59:59;5.10;81.60
33803;DHT22;20110;53.120;5.786;2023-02-26T14:02:35;4.70;84.50
33803;DHT22;20110;53.120;5.786;2023-02-26T14:11:02;5.60;84.20
33803;DHT22;20110;53.120;5.786;2023-02-26T14:13:36;5.60;82.90
33803;DHT22;20110;53.120;5.786;2023-02-26T14:16:22;5.40;82.90
33803;DHT22;20110;53.120;5.786;2023-02-26T14:19:18;5.10;83.40
33803;DHT22;20110;53.120;5.786;2023-02-26T14:21:51;5.30;85.00
33803;DHT22;20110;53.120;5.786;2023-02-26T14:24:35;5.60;85.60
33803;DHT22;20110;53.120;5.786;2023-02-26T14:29:43;5.60;81.50
33803;DHT22;20110;53.120;5.786;2023-02-26T14:32:52;5.30;83.10
33803;DHT22;20110;53.120;5.786;2023-02-26T14:35:33;4.80;82.60
33803;DHT22;20110;53.120;5.786;2023-02-26T14:38:25;4.60;84.70
33803;DHT22;20110;53.120;5.786;2023-02-26T14:41:33;4.70;85.90
33803;DHT22;20110;53.120;5.786;2023-02-26T14:44:14;4.60;86.60
33803;DHT22;20110;53.120;5.786;2023-02-26T14:46:46;4.90;85.50
33803;DHT22;20110;53.120;5.786;2023-02-26T14:49:31;5.20;85.50
33803;DHT22;20110;53.120;5.786;2023-02-26T14:52:10;5.30;86.60
33803;DHT22;20110;53.120;5.786;2023-02-26T15:04:04;4.50;87.20
33803;DHT22;20110;53.120;5.786;2023-02-26T15:13:34;4.00;90.40
33803;DHT22;20110;53.120;5.786;2023-02-26T15:19:00;3.60;91.40
33803;DHT22;20110;53.120;5.786;2023-02-26T15:24:39;3.50;91.20
33803;DHT22;20110;53.120;5.786;2023-02-26T15:27:09;3.50;91.80
33803;DHT22;20110;53.120;5.786;2023-02-26T15:29:40;3.40;92.40
33803;DHT22;20110;53.120;5.786;2023-02-26T15:32:24;3.40;92.20
33803;DHT22;20110;53.120;5.786;2023-02-26T15:37:42;3.50;92.60
33803;DHT22;20110;53.120;5.786;2023-02-26T15:40:08;3.70;90.90
33803;DHT22;20110;53.120;5.786;2023-02-26T15:42:40;3.70;91.40
33803;DHT22;20110;53.120;5.786;2023-02-26T15:45:21;3.80;91.50
33803;DHT22;20110;53.120;5.786;2023-02-26T15:47:55;3.70;91.80
33803;DHT22;20110;53.120;5.786;2023-02-26T15:50:28;3.70;92.00
33803;DHT22;20110;53.120;5.786;2023-02-26T15:52:59;3.80;91.80
33803;DHT22;20110;53.120;5.786;2023-02-26T15:55:31;3.80;90.80
33803;DHT22;20110;53.120;5.786;2023-02-26T15:58:05;3.80;91.90
33803;DHT22;20110;53.120;5.786;2023-02-26T16:00:35;3.80;92.70
33803;DHT22;20110;53.120;5.786;2023-02-26T16:03:02;4.00;91.50
33803;DHT22;20110;53.120;5.786;2023-02-26T16:05:29;4.10;91.40
33803;DHT22;20110;53.120;5.786;2023-02-26T16:07:56;4.20;92.30
33803;DHT22;20110;53.120;5.786;2023-02-26T16:10:31;4.30;92.90
33803;DHT22;20110;53.120;5.786;2023-02-26T16:13:00;4.20;92.70
33803;DHT22;20110;53.120;5.786;2023-02-26T16:15:37;4.00;93.40
33803;DHT22;20110;53.120;5.786;2023-02-26T16:18:12;3.80;94.10
33803;DHT22;20110;53.120;5.786;2023-02-26T16:20:43;3.60;93.60
33803;DHT22;20110;53.120;5.786;2023-02-26T16:23:15;3.50;94.10
33803;DHT22;20110;53.120;5.786;2023-02-26T16:26:04;3.30;94.70
33803;DHT22;20110;53.120;5.786;2023-02-26T16:28:38;3.20;95.30
33803;DHT22;20110;53.120;5.786;2023-02-26T16:31:18;3.00;96.00
33803;DHT22;20110;53.120;5.786;2023-02-26T16:36:47;2.80;97.50
33803;DHT22;20110;53.120;5.786;2023-02-26T16:39:16;2.60;98.30
33803;DHT22;20110;53.120;5.786;2023-02-26T16:41:48;2.50;98.90
33803;DHT22;20110;53.120;5.786;2023-02-26T16:46:56;2.20;99.90
33803;DHT22;20110;53.120;5.786;2023-02-26T16:49:33;2.10;99.90
33803;DHT22;20110;53.120;5.786;2023-02-26T16:52:02;2.00;99.90
33803;DHT22;20110;53.120;5.786;2023-02-26T16:54:34;1.90;99.90
33803;DHT22;20110;53.120;5.786;2023-02-26T16:57:05;1.70;99.90
33803;DHT22;20110;53.120;5.786;2023-02-26T16:59:35;1.60;99.90
33803;DHT22;20110;53.120;5.786;2023-02-26T17:02:13;1.50;99.90
33803;DHT22;20110;53.120;5.786;2023-02-26T17:04:46;1.40;99.90
33803;DHT22;20110;53.120;5.786;2023-02-26T17:07:27;1.20;99.90
33803;DHT22;20110;53.120;5.786;2023-02-26T17:09:58;1.00;99.90
33803;DHT22;20110;53.120;5.786;2023-02-26T17:12:46;0.90;99.90
33803;DHT22;20110;53.120;5.786;2023-02-26T17:15:30;0.70;99.90
33803;DHT22;20110;53.120;5.786;2023-02-26T17:18:00;0.50;99.90
33803;DHT22;20110;53.120;5.786;2023-02-26T17:20:28;0.40;99.90
33803;DHT22;20110;53.120;5.786;2023-02-26T17:22:56;0.30;99.90
33803;DHT22;20110;53.120;5.786;2023-02-26T17:25:25;0.10;99.90
33803;DHT22;20110;53.120;5.786;2023-02-26T17:27:55;0.10;99.90
33803;DHT22;20110;53.120;5.786;2023-02-26T17:30:22;-0.10;99.90
33803;DHT22;20110;53.120;5.786;2023-02-26T17:32:49;-0.20;99.90
33803;DHT22;20110;53.120;5.786;2023-02-26T17:35:16;-0.30;99.90
33803;DHT22;20110;53.120;5.786;2023-02-26T17:37:44;-0.40;99.90
33803;DHT22;20110;53.120;5.786;2023-02-26T17:42:47;-0.40;99.90
33803;DHT22;20110;53.120;5.786;2023-02-26T17:45:13;-0.50;99.90
33803;DHT22;20110;53.120;5.786;2023-02-26T17:47:40;-0.40;99.90
33803;DHT22;20110;53.120;5.786;2023-02-26T17:50:21;-0.40;99.90
33803;DHT22;20110;53.120;5.786;2023-02-26T17:52:49;-0.20;99.90
33803;DHT22;20110;53.120;5.786;2023-02-26T17:55:15;-0.30;99.90
33803;DHT22;20110;53.120;5.786;2023-02-26T17:57:41;-0.40;99.90
33803;DHT22;20110;53.120;5.786;2023-02-26T18:00:09;-0.50;99.90
33803;DHT22;20110;53.120;5.786;2023-02-26T18:02:39;-0.60;99.90
33803;DHT22;20110;53.120;5.786;2023-02-26T18:05:05;-0.70;99.90
33803;DHT22;20110;53.120;5.786;2023-02-26T18:07:32;-0.70;99.90
33803;DHT22;20110;53.120;5.786;2023-02-26T18:09:58;-0.70;99.90
33803;DHT22;20110;53.120;5.786;2023-02-26T18:12:24;-0.80;99.90
33803;DHT22;20110;53.120;5.786;2023-02-26T18:14:50;-0.80;99.90
33803;DHT22;20110;53.120;5.786;2023-02-26T18:17:25;-0.80;99.90
33803;DHT22;20110;53.120;5.786;2023-02-26T18:19:53;-0.90;99.90
33803;DHT22;20110;53.120;5.786;2023-02-26T18:22:20;-0.90;99.90
33803;DHT22;20110;53.120;5.786;2023-02-26T18:24:50;-1.00;99.90
33803;DHT22;20110;53.120;5.786;2023-02-26T18:27:18;-1.00;99.90
33803;DHT22;20110;53.120;5.786;2023-02-26T18:29:46;-1.00;99.90
33803;DHT22;20110;53.120;5.786;2023-02-26T18:32:13;-1.00;99.90
33803;DHT22;20110;53.120;5.786;2023-02-26T18:34:44;-1.10;99.90
33803;DHT22;20110;53.120;5.786;2023-02-26T18:37:12;-1.10;99.90
33803;DHT22;20110;53.120;5.786;2023-02-26T18:39:40;-1.30;99.90
33803;DHT22;20110;53.120;5.786;2023-02-26T18:42:09;-1.40;99.90
33803;DHT22;20110;53.120;5.786;2023-02-26T18:44:43;-1.20;99.90
33803;DHT22;20110;53.120;5.786;2023-02-26T18:47:09;-0.90;99.90
33803;DHT22;20110;53.120;5.786;2023-02-26T18:49:36;-1.10;99.90
33803;DHT22;20110;53.120;5.786;2023-02-26T18:52:02;-1.00;99.90
33803;DHT22;20110;53.120;5.786;2023-02-26T18:54:28;-0.70;99.90